createdAt,value
2023-10-21T03:35:19.572Z,11.60
2023-10-21T03:37:46.377Z,11.60
2023-10-21T03:40:13.357Z,11.50
2023-10-21T03:42:40.384Z,11.60
2023-10-21T03:45:08.918Z,11.50
2023-10-21T03:47:35.938Z,11.50
2023-10-21T03:50:04.144Z,11.60
2023-10-21T03:52:30.948Z,11.50
2023-10-21T03:54:57.886Z,11.50
2023-10-21T03:57:24.756Z,11.50
2023-10-21T03:59:51.541Z,11.60
2023-10-21T04:14:13.955Z,11.50
2023-10-21T04:16:45.543Z,11.50
2023-10-21T04:19:12.623Z,11.60
2023-10-21T04:21:39.412Z,11.60
2023-10-21T04:24:06.497Z,11.60
2023-10-21T04:30:21.064Z,11.60
2023-10-21T04:40:21.927Z,11.70
2023-10-21T04:46:36.063Z,11.70
2023-10-21T04:49:02.883Z,11.70
2023-10-21T04:51:29.645Z,11.60
2023-10-21T04:53:56.400Z,11.70
2023-10-21T04:56:23.100Z,11.60
2023-10-21T04:58:49.909Z,11.60
2023-10-21T05:01:17.738Z,11.70
2023-10-21T05:03:44.811Z,11.60
2023-10-21T05:22:14.289Z,11.70
2023-10-21T05:24:41.072Z,11.70
2023-10-21T05:27:44.978Z,11.60
2023-10-21T05:37:45.845Z,11.70
2023-10-21T05:40:13.336Z,11.80
2023-10-21T05:42:40.343Z,11.80
2023-10-21T05:45:09.524Z,11.90
2023-10-21T05:47:37.282Z,11.80
2023-10-21T05:50:04.436Z,11.70
2023-10-21T05:52:31.196Z,11.70
2023-10-21T05:54:57.954Z,11.70
2023-10-21T05:57:24.782Z,11.70
2023-10-21T05:59:51.815Z,11.70
2023-10-21T06:02:18.830Z,11.70
2023-10-21T06:04:45.940Z,11.80
2023-10-21T06:07:14.353Z,11.80
2023-10-21T06:09:42.196Z,11.80
2023-10-21T06:12:09.305Z,11.70
2023-10-21T06:29:39.156Z,11.80
2023-10-21T06:35:54.029Z,11.80
2023-10-21T06:46:41.883Z,12.00
2023-10-21T07:00:30.154Z,12.00
2023-10-21T07:06:46.536Z,12.10
2023-10-21T07:09:13.382Z,12.30
2023-10-21T07:11:41.479Z,12.30
2023-10-21T07:14:08.437Z,12.30
2023-10-21T07:16:35.280Z,12.20
2023-10-21T07:19:02.834Z,12.20
2023-10-21T07:32:52.202Z,12.40
2023-10-21T07:43:05.669Z,12.50
2023-10-21T07:49:20.371Z,12.50
2023-10-21T07:51:47.268Z,12.60
2023-10-21T07:58:40.125Z,12.60
2023-10-21T08:19:58.294Z,12.70
2023-10-21T08:22:25.074Z,12.70
2023-10-21T08:28:32.726Z,12.70
2023-10-21T08:30:59.535Z,12.70
2023-10-21T08:33:26.491Z,12.70
2023-10-21T08:35:53.264Z,12.70
2023-10-21T08:38:20.010Z,12.70
2023-10-21T08:40:48.287Z,12.60
2023-10-21T08:43:18.713Z,12.70
2023-10-21T08:45:46.339Z,12.80
2023-10-21T08:48:13.557Z,12.80
2023-10-21T08:50:41.967Z,12.90
2023-10-21T08:53:14.350Z,12.90
2023-10-21T08:55:42.601Z,12.90
2023-10-21T08:58:09.835Z,12.80
2023-10-21T09:00:36.875Z,12.90
2023-10-21T09:03:04.739Z,13.00
2023-10-21T09:05:31.794Z,13.00
2023-10-21T09:07:59.314Z,13.00
2023-10-21T09:10:26.211Z,13.10
2023-10-21T09:12:52.938Z,13.20
2023-10-21T09:15:20.389Z,13.30
2023-10-21T09:17:47.405Z,13.30
2023-10-21T09:20:16.517Z,13.40
2023-10-21T09:22:45.405Z,13.50
2023-10-21T09:25:23.533Z,13.60
2023-10-21T09:27:55.249Z,13.50
2023-10-21T09:30:25.952Z,13.40
2023-10-21T09:33:08.797Z,13.50
2023-10-21T09:35:38.994Z,13.50
2023-10-21T09:38:20.161Z,13.50
2023-10-21T09:40:47.074Z,13.60
2023-10-21T09:43:14.459Z,13.60
2023-10-21T09:45:46.144Z,13.60
2023-10-21T09:48:13.506Z,13.70
2023-10-21T09:50:47.532Z,13.80
2023-10-21T09:53:17.436Z,13.80
2023-10-21T09:55:44.940Z,13.70
2023-10-21T09:58:13.619Z,13.60
2023-10-21T10:00:41.750Z,13.60
2023-10-21T10:03:09.161Z,13.70
2023-10-21T10:05:39.282Z,13.80
2023-10-21T10:08:06.532Z,13.90
2023-10-21T10:10:36.764Z,13.90
2023-10-21T10:13:07.743Z,13.80
2023-10-21T10:15:38.680Z,13.70
2023-10-21T10:18:21.377Z,13.60
2023-10-21T10:20:50.299Z,13.60
2023-10-21T10:23:18.902Z,13.70
2023-10-21T10:25:53.224Z,13.70
2023-10-21T10:28:21.299Z,13.70
2023-10-21T10:30:53.617Z,13.70
2023-10-21T10:33:23.997Z,13.80
2023-10-21T10:35:55.700Z,13.80
2023-10-21T10:38:29.142Z,13.80
2023-10-21T10:41:08.834Z,13.70
2023-10-21T10:43:39.176Z,13.80
2023-10-21T10:46:09.902Z,13.90
2023-10-21T10:48:36.885Z,14.00
2023-10-21T10:51:18.992Z,14.00
2023-10-21T10:53:57.838Z,14.10
2023-10-21T10:56:27.220Z,14.10
2023-10-21T10:58:54.106Z,14.10
2023-10-21T11:01:29.545Z,14.30
2023-10-21T11:04:02.261Z,14.40
2023-10-21T11:06:34.427Z,14.50
2023-10-21T11:09:01.461Z,14.40
2023-10-21T11:11:28.876Z,14.40
2023-10-21T11:13:57.358Z,14.50
2023-10-21T11:16:24.410Z,14.60
2023-10-21T11:18:53.658Z,14.60
2023-10-21T11:21:40.718Z,14.60
2023-10-21T11:24:09.450Z,14.50
2023-10-21T11:26:39.026Z,14.50
2023-10-21T11:29:07.115Z,14.60
2023-10-21T11:31:35.993Z,14.70
2023-10-21T11:34:15.852Z,14.60
2023-10-21T11:36:50.711Z,14.60
2023-10-21T11:39:19.085Z,14.50
2023-10-21T11:41:50.413Z,14.40
2023-10-21T11:44:18.769Z,14.40
2023-10-21T11:46:45.878Z,14.30
2023-10-21T11:49:15.190Z,14.20
2023-10-21T11:51:43.386Z,14.30
2023-10-21T12:05:50.044Z,13.90
2023-10-21T12:08:34.772Z,13.80
2023-10-21T12:11:23.009Z,13.70
2023-10-21T12:13:50.022Z,13.50
2023-10-21T12:16:16.847Z,13.30
2023-10-21T12:19:06.346Z,13.20
2023-10-21T12:21:52.274Z,13.00
2023-10-21T12:24:34.216Z,12.90
2023-10-21T12:27:23.987Z,12.90
2023-10-21T12:33:55.984Z,12.80
2023-10-21T12:36:33.348Z,12.70
2023-10-21T12:39:18.298Z,12.50
2023-10-21T12:41:55.363Z,12.40
2023-10-21T12:51:57.970Z,12.60
2023-10-21T12:54:24.729Z,12.50
2023-10-21T12:56:51.977Z,12.40
2023-10-21T12:59:20.652Z,12.30
2023-10-21T13:05:56.458Z,12.40
2023-10-21T13:08:23.292Z,12.30
2023-10-21T13:10:50.079Z,12.30
2023-10-21T13:13:19.482Z,12.30
2023-10-21T13:15:46.334Z,12.40
2023-10-21T13:26:45.124Z,12.10
2023-10-21T13:29:11.896Z,11.90
2023-10-21T13:31:40.629Z,11.60
2023-10-21T13:41:48.919Z,11.60
2023-10-21T13:52:32.267Z,11.80
2023-10-21T13:54:59.086Z,11.90
2023-10-21T13:57:25.914Z,11.90
2023-10-21T14:07:09.810Z,11.70
2023-10-21T14:09:37.334Z,11.50
2023-10-21T14:19:38.611Z,11.60
2023-10-21T14:22:05.417Z,11.70
2023-10-21T14:28:14.724Z,11.90
2023-10-21T14:35:30.626Z,11.90
2023-10-21T14:37:57.334Z,11.90
2023-10-21T14:40:24.242Z,11.90
2023-10-21T14:42:50.959Z,11.90
2023-10-21T14:45:17.733Z,11.90
2023-10-21T14:47:44.537Z,11.80
2023-10-21T14:50:11.690Z,11.80
2023-10-21T14:52:38.583Z,11.80
2023-10-21T14:55:09.562Z,11.80
2023-10-21T14:57:37.871Z,11.80
2023-10-21T15:00:06.153Z,11.80
2023-10-21T15:02:34.862Z,11.80
2023-10-21T15:05:01.734Z,11.80
2023-10-21T15:07:28.518Z,11.80
2023-10-21T15:13:42.659Z,11.80
2023-10-21T15:19:56.745Z,11.60
2023-10-21T15:22:23.632Z,11.60
2023-10-21T15:24:52.003Z,11.50
2023-10-21T15:38:41.692Z,11.80
2023-10-21T15:49:29.959Z,11.60
2023-10-21T15:51:56.652Z,11.60
2023-10-21T15:54:23.504Z,11.50
2023-10-21T15:56:50.359Z,11.40
2023-10-21T15:59:17.066Z,11.40
2023-10-21T16:01:43.891Z,11.50
2023-10-21T16:04:11.412Z,11.60
2023-10-21T16:06:38.450Z,11.50
2023-10-21T16:09:06.815Z,11.40
2023-10-21T16:11:34.752Z,11.50
2023-10-21T16:14:01.994Z,11.50
2023-10-21T16:16:30.373Z,11.60
2023-10-21T16:18:57.352Z,11.60
2023-10-21T16:21:24.147Z,11.60
2023-10-21T16:23:50.937Z,11.70
2023-10-21T16:26:17.676Z,11.70
2023-10-21T16:28:45.716Z,11.70
2023-10-21T16:31:14.442Z,11.70
2023-10-21T16:33:41.358Z,11.60
2023-10-21T16:36:08.563Z,11.70
2023-10-21T16:38:36.326Z,11.60
2023-10-21T16:41:03.054Z,11.60
2023-10-21T16:43:29.902Z,11.60
2023-10-21T16:45:56.746Z,11.50
2023-10-21T16:48:23.558Z,11.40
2023-10-21T16:50:50.337Z,11.40
2023-10-21T16:53:17.144Z,11.40
2023-10-21T16:55:44.255Z,11.60
2023-10-21T16:58:10.995Z,11.60
2023-10-21T17:00:38.413Z,11.50
2023-10-21T17:03:07.193Z,11.60
2023-10-21T17:05:35.813Z,11.60
2023-10-21T17:08:04.119Z,11.60
2023-10-21T17:10:30.892Z,11.60
2023-10-21T17:12:59.767Z,11.60
2023-10-21T17:15:29.499Z,11.60
2023-10-21T17:17:57.519Z,11.70
2023-10-21T17:20:27.640Z,11.70
2023-10-21T17:22:54.460Z,11.70
2023-10-21T17:25:21.576Z,11.60
2023-10-21T17:27:49.411Z,11.70
2023-10-21T17:30:17.899Z,11.70
2023-10-21T17:32:46.025Z,11.60
2023-10-21T17:35:12.786Z,11.60
2023-10-21T17:45:26.784Z,11.50
2023-10-21T17:47:53.667Z,11.40
2023-10-21T17:50:20.599Z,11.40
2023-10-21T17:56:37.904Z,11.50
2023-10-21T17:59:07.660Z,11.40
2023-10-21T18:01:35.272Z,11.40
2023-10-21T18:04:02.305Z,11.50
2023-10-21T18:06:29.330Z,11.60
2023-10-21T18:08:58.215Z,11.60
2023-10-21T18:11:25.172Z,11.50
2023-10-21T18:13:51.996Z,11.60
2023-10-21T18:16:20.732Z,11.50
2023-10-21T18:18:50.249Z,11.50
2023-10-21T18:21:17.098Z,11.50
2023-10-21T18:23:43.873Z,11.50
2023-10-21T18:29:57.954Z,11.70
2023-10-21T18:32:24.793Z,11.60
2023-10-21T18:42:25.919Z,11.40
2023-10-21T18:44:52.773Z,11.20
2023-10-21T18:47:19.528Z,11.30
2023-10-21T18:49:46.264Z,11.40
2023-10-21T18:52:17.325Z,11.50
2023-10-21T18:54:45.550Z,11.60
2023-10-21T18:57:53.375Z,11.60
2023-10-21T19:04:08.473Z,11.60
2023-10-21T19:07:31.559Z,11.60
2023-10-21T19:10:00.513Z,11.60
2023-10-21T19:12:27.647Z,11.50
2023-10-21T19:14:54.864Z,11.40
2023-10-21T19:21:09.548Z,11.40
2023-10-21T19:27:23.770Z,11.50
2023-10-21T19:33:37.985Z,11.50
2023-10-21T19:36:05.146Z,11.50
2023-10-21T19:38:32.883Z,11.50
2023-10-21T19:41:04.621Z,11.50
2023-10-21T19:43:31.435Z,11.30
2023-10-21T19:45:58.240Z,11.20
2023-10-21T19:52:11.955Z,11.10
2023-10-21T19:54:38.778Z,10.90
2023-10-21T20:00:56.458Z,11.00
2023-10-21T20:03:24.764Z,10.90
2023-10-21T20:09:39.175Z,11.00
2023-10-21T20:12:06.870Z,11.00
2023-10-21T20:14:35.258Z,11.00
2023-10-21T20:17:04.736Z,11.00
2023-10-21T20:19:32.474Z,11.00
2023-10-21T20:21:59.241Z,11.00
2023-10-21T20:24:25.992Z,11.00
2023-10-21T20:26:52.817Z,11.00
2023-10-21T20:33:06.986Z,11.00
2023-10-21T20:35:36.088Z,11.00
2023-10-21T20:38:05.103Z,11.00
2023-10-21T20:44:48.749Z,11.00
2023-10-21T20:47:15.915Z,11.00
2023-10-21T20:49:42.657Z,11.00
2023-10-21T20:56:01.104Z,11.00
2023-10-21T21:05:43.926Z,10.90
2023-10-21T21:08:10.666Z,10.90
2023-10-21T21:10:37.854Z,10.90
2023-10-21T21:13:05.189Z,10.90
2023-10-21T21:16:10.126Z,10.80
2023-10-21T21:18:37.202Z,11.00
2023-10-21T21:21:04.182Z,11.00
2023-10-21T21:23:31.104Z,10.90
2023-10-21T21:33:31.959Z,10.70
2023-10-21T21:35:59.634Z,10.70
2023-10-21T21:38:26.554Z,10.60
2023-10-21T21:44:41.859Z,10.70
2023-10-21T21:47:08.581Z,10.70
2023-10-21T21:49:35.848Z,10.60
2023-10-21T21:59:31.233Z,10.70
2023-10-21T22:01:58.393Z,10.70
2023-10-21T22:04:25.395Z,10.80
2023-10-21T22:06:52.287Z,10.90
2023-10-21T22:13:07.003Z,11.00
2023-10-21T22:15:37.559Z,10.90
2023-10-21T22:18:04.414Z,10.80
2023-10-21T22:20:31.229Z,10.80
2023-10-21T22:22:58.044Z,10.70
2023-10-21T22:25:39.678Z,10.60
2023-10-21T22:28:13.706Z,10.70
2023-10-21T22:30:44.923Z,10.60
2023-10-21T22:33:12.798Z,10.50
2023-10-21T22:35:47.413Z,10.50
2023-10-21T22:38:14.273Z,10.50
2023-10-21T22:40:43.698Z,10.60
2023-10-21T22:43:10.476Z,10.50
2023-10-21T22:45:39.041Z,10.50
2023-10-21T22:48:08.861Z,10.50
2023-10-21T22:50:35.782Z,10.60
2023-10-21T22:53:47.617Z,10.50
2023-10-21T22:56:14.707Z,10.60
2023-10-21T22:58:41.888Z,10.60
